createdAt,value
2018-07-11T00:01:10.408Z,76.80
2018-07-11T00:03:46.356Z,77.80
2018-07-11T00:06:19.951Z,77.60
2018-07-11T00:08:54.309Z,76.80
2018-07-11T00:11:26.915Z,76.70
2018-07-11T00:14:00.998Z,76.40
2018-07-11T00:16:34.971Z,75.80
2018-07-11T00:19:11.697Z,75.50
2018-07-11T00:21:46.781Z,76.30
2018-07-11T00:24:20.712Z,75.80
2018-07-11T00:26:53.511Z,76.20
2018-07-11T00:29:26.697Z,77.00
2018-07-11T00:32:25.362Z,76.40
2018-07-11T00:35:16.973Z,76.90
2018-07-11T00:47:27.218Z,75.60
2018-07-11T00:50:05.176Z,75.40
2018-07-11T00:52:41.924Z,76.80
2018-07-11T00:55:19.887Z,78.00
2018-07-11T00:58:03.350Z,79.40
2018-07-11T01:00:42.494Z,78.00
2018-07-11T01:03:20.526Z,78.50
2018-07-11T01:06:02.112Z,76.20
2018-07-11T01:08:42.037Z,76.40
2018-07-11T01:11:25.592Z,75.90
2018-07-11T01:14:05.654Z,76.10
2018-07-11T01:16:43.048Z,76.30
2018-07-11T01:19:23.273Z,76.80
2018-07-11T01:22:09.369Z,76.80
2018-07-11T01:24:53.837Z,76.90
2018-07-11T01:27:31.852Z,77.80
2018-07-11T01:30:11.793Z,77.60
2018-07-11T01:32:55.136Z,77.40
2018-07-11T01:35:33.926Z,77.40
2018-07-11T01:38:09.444Z,77.30
2018-07-11T01:40:44.903Z,77.20
2018-07-11T01:43:24.571Z,78.20
2018-07-11T01:46:02.862Z,78.80
2018-07-11T01:48:39.369Z,77.80
2018-07-11T01:51:21.002Z,76.20
2018-07-11T01:54:02.383Z,76.80
2018-07-11T01:56:38.603Z,77.70
2018-07-11T01:59:13.886Z,78.00
2018-07-11T02:01:53.738Z,77.10
2018-07-11T02:04:33.097Z,76.30
2018-07-11T02:07:13.981Z,76.60
2018-07-11T02:09:52.761Z,77.40
2018-07-11T02:12:39.204Z,79.80
2018-07-11T02:15:15.130Z,79.00
2018-07-11T02:17:55.760Z,77.80
2018-07-11T02:20:34.888Z,78.30
2018-07-11T02:23:12.833Z,79.10
2018-07-11T02:25:53.469Z,77.70
2018-07-11T02:28:35.448Z,77.40
2018-07-11T02:31:18.687Z,77.60
2018-07-11T02:34:05.019Z,76.50
2018-07-11T02:36:41.940Z,77.60
2018-07-11T02:39:16.684Z,77.40
2018-07-11T02:42:01.324Z,76.30
2018-07-11T02:47:28.541Z,75.90
2018-07-11T02:52:46.053Z,76.50
2018-07-11T02:55:20.716Z,76.60
2018-07-11T02:57:55.938Z,77.30
2018-07-11T03:00:32.916Z,76.50
2018-07-11T03:03:08.846Z,76.90
2018-07-11T03:05:45.330Z,77.50
2018-07-11T03:08:25.074Z,77.40
2018-07-11T03:11:05.873Z,77.70
2018-07-11T03:16:28.069Z,76.90
2018-07-11T03:19:05.077Z,77.70
2018-07-11T03:21:34.717Z,77.10
2018-07-11T03:24:10.851Z,77.00
2018-07-11T03:26:51.170Z,76.80
2018-07-11T03:29:39.147Z,78.50
2018-07-11T03:32:22.168Z,78.30
2018-07-11T03:37:40.263Z,77.00
2018-07-11T03:40:18.301Z,78.20
2018-07-11T03:45:30.374Z,76.90
2018-07-11T03:48:05.655Z,77.30
2018-07-11T03:53:26.415Z,76.50
2018-07-11T03:56:04.613Z,76.90
2018-07-11T03:58:46.750Z,76.80
2018-07-11T04:01:22.003Z,77.30
2018-07-11T04:04:02.893Z,77.40
2018-07-11T04:06:42.642Z,77.30
2018-07-11T04:09:20.060Z,77.60
2018-07-11T04:12:02.856Z,77.10
2018-07-11T04:14:37.624Z,77.00
2018-07-11T04:17:19.919Z,77.20
2018-07-11T04:19:53.529Z,76.50
2018-07-11T04:22:35.033Z,76.50
2018-07-11T04:25:09.464Z,77.60
2018-07-11T04:27:43.757Z,78.90
2018-07-11T04:33:14.248Z,76.40
2018-07-11T04:41:17.892Z,76.60
2018-07-11T04:43:53.685Z,78.00
2018-07-11T04:46:35.926Z,79.90
2018-07-11T04:54:36.044Z,78.10
2018-07-11T04:57:19.357Z,77.70
2018-07-11T04:59:53.662Z,77.50
2018-07-11T05:02:29.991Z,77.00
2018-07-11T05:05:06.751Z,77.40
2018-07-11T05:07:54.237Z,77.00
2018-07-11T05:10:33.787Z,78.50
2018-07-11T05:13:18.310Z,78.00
2018-07-11T05:15:55.518Z,77.70
2018-07-11T05:18:35.152Z,77.50
2018-07-11T05:21:12.109Z,77.00
2018-07-11T05:23:54.090Z,76.30
2018-07-11T05:26:31.247Z,76.80
2018-07-11T05:29:09.634Z,76.70
2018-07-11T05:31:48.084Z,77.20
2018-07-11T05:34:24.227Z,77.60
2018-07-11T05:37:04.681Z,77.00
2018-07-11T05:42:17.188Z,77.70
2018-07-11T05:44:52.889Z,76.50
2018-07-11T05:50:07.027Z,75.70
2018-07-11T05:52:47.787Z,77.90
2018-07-11T05:58:09.258Z,77.20
2018-07-11T06:03:28.848Z,76.90
2018-07-11T06:06:04.908Z,76.70
2018-07-11T06:08:50.208Z,77.20
2018-07-11T06:11:28.504Z,75.90
2018-07-11T06:14:07.525Z,75.70
2018-07-11T06:16:48.309Z,75.50
2018-07-11T06:19:25.377Z,77.50
2018-07-11T06:22:04.752Z,76.60
2018-07-11T06:24:40.878Z,77.70
2018-07-11T06:27:20.210Z,77.70
2018-07-11T06:29:59.460Z,75.90
2018-07-11T06:32:57.402Z,75.50
2018-07-11T06:35:40.549Z,75.30
2018-07-11T06:38:22.899Z,74.80
2018-07-11T06:43:45.330Z,75.00
2018-07-11T06:46:23.535Z,74.60
2018-07-11T06:49:00.885Z,74.70
2018-07-11T06:51:40.270Z,75.30
2018-07-11T06:54:15.706Z,75.40
2018-07-11T06:56:53.260Z,74.50
2018-07-11T06:59:39.067Z,75.10
2018-07-11T07:02:18.767Z,74.80
2018-07-11T07:04:58.279Z,74.90
2018-07-11T07:07:37.919Z,74.80
2018-07-11T07:10:18.711Z,75.30
2018-07-11T07:12:59.608Z,74.70
2018-07-11T07:15:40.101Z,74.40
2018-07-11T07:18:15.007Z,74.00
2018-07-11T07:20:56.594Z,73.30
2018-07-11T07:23:37.690Z,74.90
2018-07-11T07:26:12.048Z,75.40
2018-07-11T07:28:46.781Z,74.20
2018-07-11T07:31:25.074Z,74.00
2018-07-11T07:34:05.424Z,75.60
2018-07-11T07:36:46.844Z,74.40
2018-07-11T07:39:29.933Z,74.10
2018-07-11T07:42:16.298Z,74.10
2018-07-11T07:50:06.219Z,73.20
2018-07-11T07:52:43.250Z,73.20
2018-07-11T07:55:24.782Z,74.40
2018-07-11T07:58:05.650Z,72.40
2018-07-11T08:00:44.678Z,72.60
2018-07-11T08:03:24.086Z,73.50
2018-07-11T08:05:59.127Z,72.70
2018-07-11T08:08:37.721Z,72.30
2018-07-11T08:11:18.423Z,73.70
2018-07-11T08:13:57.043Z,76.10
2018-07-11T08:16:32.875Z,73.50
2018-07-11T08:24:34.024Z,72.40
2018-07-11T08:27:20.232Z,69.80
2018-07-11T08:30:08.911Z,70.90
2018-07-11T08:32:57.165Z,72.10
2018-07-11T08:36:19.977Z,69.30
2018-07-11T08:42:44.728Z,69.80
2018-07-11T08:45:27.656Z,70.50
2018-07-11T08:48:20.915Z,72.20
2018-07-11T08:51:04.513Z,71.60
2018-07-11T08:54:00.909Z,72.00
2018-07-11T08:56:46.779Z,70.50
2018-07-11T09:02:33.844Z,68.90
2018-07-11T09:05:24.345Z,70.40
2018-07-11T09:10:15.571Z,71.60
2018-07-11T09:13:05.762Z,72.20
2018-07-11T09:15:54.758Z,72.80
2018-07-11T09:20:41.336Z,70.00
2018-07-11T09:25:34.532Z,73.30
2018-07-11T09:30:50.798Z,72.50
2018-07-11T09:33:30.888Z,69.30
2018-07-11T09:36:11.907Z,69.10
2018-07-11T09:38:47.722Z,67.80
2018-07-11T09:41:32.027Z,68.70
2018-07-11T09:44:08.604Z,66.00
2018-07-11T09:46:53.645Z,65.00
2018-07-11T09:49:37.258Z,68.00
2018-07-11T09:52:20.291Z,66.40
2018-07-11T09:55:00.244Z,67.30
2018-07-11T09:57:44.778Z,66.70
2018-07-11T10:00:28.550Z,65.40
2018-07-11T10:03:11.936Z,63.10
2018-07-11T10:08:25.205Z,67.00
2018-07-11T10:11:08.540Z,66.70
2018-07-11T10:13:51.832Z,60.50
2018-07-11T10:16:35.995Z,60.70
2018-07-11T10:19:14.994Z,60.40
2018-07-11T10:21:55.402Z,61.20
2018-07-11T10:24:32.294Z,63.10
2018-07-11T10:27:12.151Z,59.10
2018-07-11T10:29:55.024Z,59.90
2018-07-11T10:32:34.840Z,62.30
2018-07-11T10:35:24.936Z,64.00
2018-07-11T10:38:03.619Z,65.00
2018-07-11T10:40:49.971Z,67.50
2018-07-11T10:46:08.243Z,68.60
2018-07-11T10:48:49.825Z,69.50
2018-07-11T10:54:08.329Z,68.80
2018-07-11T10:56:46.731Z,68.80
2018-07-11T11:02:19.398Z,70.00
2018-07-11T11:07:48.024Z,68.80
2018-07-11T11:13:13.540Z,67.50
2018-07-11T11:15:51.753Z,69.20
2018-07-11T11:18:31.135Z,68.50
2018-07-11T11:21:09.910Z,66.50
2018-07-11T11:23:46.051Z,67.10
2018-07-11T11:31:50.396Z,68.10
2018-07-11T11:34:33.077Z,66.20
2018-07-11T11:37:10.495Z,66.20
2018-07-11T11:39:52.224Z,66.10
2018-07-11T11:45:09.214Z,67.00
2018-07-11T11:47:59.389Z,65.60
2018-07-11T11:50:41.644Z,66.20
2018-07-11T11:53:22.630Z,66.30
2018-07-11T11:58:50.461Z,66.00
2018-07-11T12:01:32.131Z,62.30
2018-07-11T12:04:09.147Z,60.50
2018-07-11T12:06:53.401Z,60.90
2018-07-11T12:09:31.627Z,63.00
2018-07-11T12:12:09.444Z,61.90
2018-07-11T12:14:49.404Z,58.80
2018-07-11T12:17:32.192Z,61.10
2018-07-11T12:20:09.765Z,59.80
2018-07-11T12:22:45.004Z,61.30
2018-07-11T12:25:27.987Z,58.90
2018-07-11T12:28:07.279Z,60.50
2018-07-11T12:30:52.986Z,62.60
2018-07-11T12:33:34.373Z,59.10
2018-07-11T12:36:19.097Z,59.70
2018-07-11T12:39:08.686Z,61.30
2018-07-11T12:41:49.304Z,60.10
2018-07-11T12:44:35.323Z,60.70
2018-07-11T12:49:58.493Z,60.80
2018-07-11T12:52:39.450Z,63.10
2018-07-11T12:55:21.252Z,60.60
2018-07-11T13:00:44.790Z,60.20
2018-07-11T13:14:09.134Z,60.20
2018-07-11T13:16:52.110Z,61.30
2018-07-11T13:19:33.345Z,62.60
2018-07-11T13:22:13.445Z,63.90
2018-07-11T13:38:46.625Z,64.00
2018-07-11T13:41:30.133Z,67.90
2018-07-11T13:44:17.682Z,69.40
2018-07-11T13:49:34.856Z,73.30
2018-07-11T13:52:14.542Z,73.60
2018-07-11T13:54:58.980Z,72.20
2018-07-11T13:57:39.508Z,72.90
2018-07-11T14:00:25.969Z,72.00
2018-07-11T14:03:03.244Z,74.00
2018-07-11T14:05:40.230Z,72.90
2018-07-11T14:08:26.643Z,73.70
2018-07-11T14:11:01.492Z,74.70
2018-07-11T14:13:44.925Z,76.80
2018-07-11T14:16:22.211Z,75.50
2018-07-11T14:19:05.060Z,75.60
2018-07-11T14:21:42.624Z,73.30
2018-07-11T14:24:20.527Z,73.50
2018-07-11T14:29:43.788Z,74.10
2018-07-11T14:32:32.445Z,75.10
2018-07-11T14:40:42.262Z,73.90
2018-07-11T14:43:25.319Z,71.90
2018-07-11T14:46:06.485Z,72.40
2018-07-11T14:48:49.512Z,72.00
2018-07-11T14:51:34.628Z,73.40
2018-07-11T14:54:15.430Z,75.50
2018-07-11T14:56:51.858Z,74.30
2018-07-11T15:02:17.742Z,71.10
2018-07-11T15:04:58.166Z,75.30
2018-07-11T15:07:44.413Z,76.10
2018-07-11T15:10:23.952Z,74.90
2018-07-11T15:13:05.118Z,73.40
2018-07-11T15:15:43.855Z,72.90
2018-07-11T15:18:28.050Z,73.80
2018-07-11T15:21:04.723Z,76.10
2018-07-11T15:23:45.507Z,74.90
2018-07-11T15:26:27.092Z,74.60
2018-07-11T15:29:06.931Z,75.40
2018-07-11T15:31:46.644Z,75.60
2018-07-11T15:37:06.008Z,76.90
2018-07-11T15:39:46.644Z,75.10
2018-07-11T15:42:31.348Z,75.10
2018-07-11T15:45:09.535Z,75.00
2018-07-11T15:47:51.333Z,75.90
2018-07-11T15:50:29.838Z,76.90
2018-07-11T15:53:17.931Z,76.10
2018-07-11T15:56:03.327Z,76.10
2018-07-11T15:58:47.891Z,77.00
2018-07-11T16:01:29.768Z,78.00
2018-07-11T16:04:09.747Z,77.60
2018-07-11T16:06:54.229Z,77.20
2018-07-11T16:09:37.818Z,77.90
2018-07-11T16:12:14.721Z,76.50
2018-07-11T16:14:56.136Z,77.30
2018-07-11T16:17:43.140Z,76.20
2018-07-11T16:20:24.891Z,76.10
2018-07-11T16:23:02.768Z,76.20
2018-07-11T16:25:42.253Z,75.50
2018-07-11T16:28:23.220Z,77.00
2018-07-11T16:33:46.843Z,75.50
2018-07-11T16:36:35.811Z,75.70
2018-07-11T16:41:53.831Z,76.90
2018-07-11T16:44:41.799Z,75.90
2018-07-11T16:47:17.737Z,75.10
2018-07-11T16:49:55.716Z,75.40
2018-07-11T16:52:34.176Z,75.40
2018-07-11T16:55:10.932Z,76.60
2018-07-11T16:57:57.080Z,75.70
2018-07-11T17:00:39.055Z,74.90
2018-07-11T17:03:17.440Z,73.10
2018-07-11T17:06:00.528Z,73.90
2018-07-11T17:08:43.667Z,75.30
2018-07-11T17:11:25.644Z,74.40
2018-07-11T17:16:56.636Z,75.60
2018-07-11T17:19:38.641Z,75.50
2018-07-11T17:22:19.804Z,74.40
2018-07-11T17:25:02.740Z,75.10
2018-07-11T17:27:42.651Z,74.40
2018-07-11T17:30:18.635Z,74.50
2018-07-11T17:35:48.502Z,75.70
2018-07-11T17:38:33.132Z,77.60
2018-07-11T17:41:15.083Z,78.00
2018-07-11T17:43:56.936Z,80.50
2018-07-11T17:46:38.892Z,80.60
2018-07-11T17:49:27.790Z,79.90
2018-07-11T17:52:18.722Z,80.90
2018-07-11T17:55:23.075Z,80.10
2018-07-11T17:58:03.557Z,80.10
2018-07-11T18:00:56.814Z,77.20
2018-07-11T18:03:45.807Z,78.80
2018-07-11T18:06:34.102Z,78.40
2018-07-11T18:09:25.933Z,77.60
2018-07-11T18:12:11.273Z,78.90
2018-07-11T18:14:57.033Z,78.40
2018-07-11T18:17:48.773Z,77.50
2018-07-11T18:20:43.311Z,78.80
2018-07-11T18:23:25.178Z,77.40
2018-07-11T18:29:04.054Z,76.80
2018-07-11T18:31:58.417Z,76.80
2018-07-11T18:35:24.336Z,76.10
2018-07-11T18:38:10.348Z,76.00
2018-07-11T18:41:08.442Z,75.40
2018-07-11T18:44:02.357Z,75.30
2018-07-11T18:46:53.831Z,76.40
2018-07-11T18:49:39.492Z,77.60
2018-07-11T18:52:23.579Z,77.80
2018-07-11T18:58:02.114Z,76.30
2018-07-11T19:00:49.782Z,76.30
2018-07-11T19:03:38.916Z,76.30
2018-07-11T19:06:55.216Z,76.30
2018-07-11T19:09:51.245Z,78.00
2018-07-11T19:12:38.508Z,80.50
2018-07-11T19:15:22.608Z,79.80
2018-07-11T19:18:14.501Z,79.10
2018-07-11T19:21:17.920Z,80.10
2018-07-11T19:24:09.461Z,78.70
2018-07-11T19:30:21.910Z,77.50
2018-07-11T19:33:38.211Z,78.30
2018-07-11T19:42:29.941Z,81.30
2018-07-11T19:45:14.585Z,80.60
2018-07-11T19:48:01.501Z,80.70
2018-07-11T19:50:50.358Z,79.60
2018-07-11T19:53:43.682Z,78.50
2018-07-11T19:56:29.943Z,77.70
2018-07-11T20:01:42.788Z,77.90
2018-07-11T20:04:18.385Z,78.00
2018-07-11T20:06:53.880Z,78.60
2018-07-11T20:09:32.090Z,77.20
2018-07-11T20:12:10.331Z,79.00
2018-07-11T20:14:47.478Z,78.30
2018-07-11T20:17:24.888Z,78.70
2018-07-11T20:22:40.136Z,79.70
2018-07-11T20:25:27.257Z,79.90
2018-07-11T20:28:02.656Z,78.60
2018-07-11T20:30:47.845Z,78.70
2018-07-11T20:33:35.589Z,79.40
2018-07-11T20:36:11.927Z,79.60
2018-07-11T20:38:54.127Z,79.10
2018-07-11T20:41:36.228Z,78.00
2018-07-11T20:44:14.156Z,77.60
2018-07-11T20:46:58.035Z,78.20
2018-07-11T20:49:43.171Z,78.20
2018-07-11T20:52:25.441Z,79.70
2018-07-11T20:55:10.392Z,78.80
2018-07-11T20:57:50.032Z,79.40
2018-07-11T21:00:34.320Z,79.20
2018-07-11T21:03:20.371Z,79.00
2018-07-11T21:07:19.800Z,79.30
2018-07-11T21:12:16.494Z,78.40
2018-07-11T21:15:18.958Z,78.70
2018-07-11T21:18:11.861Z,79.90
2018-07-11T21:20:54.765Z,80.40
2018-07-11T21:23:30.185Z,79.40
2018-07-11T21:26:13.128Z,79.00
2018-07-11T21:28:56.044Z,78.90
2018-07-11T21:31:37.927Z,78.90
2018-07-11T21:36:58.092Z,80.40
2018-07-11T21:42:24.708Z,80.00
2018-07-11T21:45:03.908Z,79.10
2018-07-11T21:47:46.989Z,79.60
2018-07-11T21:50:31.856Z,79.50
2018-07-11T21:53:11.458Z,79.20
2018-07-11T21:55:57.328Z,79.40
2018-07-11T22:01:13.855Z,79.80
2018-07-11T22:03:55.892Z,79.40
2018-07-11T22:06:34.609Z,78.70
2018-07-11T22:09:12.349Z,78.50
2018-07-11T22:11:53.598Z,77.90
2018-07-11T22:14:42.653Z,77.80
2018-07-11T22:17:33.559Z,77.90
2018-07-11T22:20:07.270Z,78.50
2018-07-11T22:22:44.825Z,78.10
2018-07-11T22:25:20.821Z,77.30
2018-07-11T22:27:55.287Z,77.20
2018-07-11T22:30:28.420Z,77.20
2018-07-11T22:33:04.512Z,77.70
2018-07-11T22:35:37.126Z,77.40
2018-07-11T22:38:12.067Z,78.40
2018-07-11T22:40:51.248Z,78.20
2018-07-11T22:43:26.567Z,79.00
2018-07-11T22:45:59.606Z,77.70
2018-07-11T22:51:07.707Z,79.20
2018-07-11T22:53:40.577Z,80.20
2018-07-11T22:56:11.733Z,80.00
2018-07-11T22:58:45.104Z,80.40
2018-07-11T23:01:21.477Z,79.60
2018-07-11T23:03:55.695Z,78.30
2018-07-11T23:09:07.211Z,76.90
2018-07-11T23:11:40.430Z,76.50
2018-07-11T23:14:18.836Z,76.30
2018-07-11T23:16:53.942Z,76.30
2018-07-11T23:19:25.220Z,76.90
2018-07-11T23:22:01.450Z,76.60
2018-07-11T23:27:14.701Z,77.40
2018-07-11T23:32:18.335Z,78.30
2018-07-11T23:34:50.816Z,78.70
2018-07-11T23:37:21.886Z,79.00
2018-07-11T23:39:57.364Z,77.60
2018-07-11T23:42:31.921Z,76.80
2018-07-11T23:45:09.065Z,76.50
2018-07-11T23:47:40.347Z,77.10
2018-07-11T23:50:11.453Z,77.00
2018-07-11T23:52:44.513Z,78.20
2018-07-11T23:55:15.820Z,78.50
2018-07-11T23:57:49.028Z,79.20
